createdAt,value
2019-05-29T01:24:20.581Z,5.23
2019-05-29T01:26:53.760Z,6.27
2019-05-29T01:29:30.106Z,5.93
2019-05-29T01:32:02.004Z,5.63
2019-05-29T01:34:38.446Z,5.63
2019-05-29T01:37:14.395Z,5.67
2019-05-29T01:39:55.038Z,6.10
2019-05-29T01:42:27.851Z,5.90
2019-05-29T01:45:07.652Z,5.80
2019-05-29T01:47:56.390Z,6.23
2019-05-29T01:50:33.158Z,6.63
2019-05-29T01:53:24.188Z,7.17
2019-05-29T01:56:11.456Z,6.70
2019-05-29T01:59:12.358Z,6.40
2019-05-29T02:01:44.595Z,6.80
2019-05-29T02:04:25.965Z,7.57
2019-05-29T02:07:05.570Z,7.20
2019-05-29T02:09:45.014Z,7.60
2019-05-29T02:12:20.768Z,7.70
2019-05-29T02:14:58.807Z,7.30
2019-05-29T02:18:05.380Z,7.60
2019-05-29T02:20:52.374Z,8.00
2019-05-29T02:23:56.450Z,7.33
2019-05-29T02:26:51.386Z,6.77
2019-05-29T02:29:43.413Z,8.07
2019-05-29T02:35:20.264Z,7.33
2019-05-29T02:38:29.097Z,8.20
2019-05-29T02:41:29.953Z,8.37
2019-05-29T02:43:39.627Z,7.97
2019-05-29T02:46:14.419Z,9.27
2019-05-29T02:48:59.345Z,8.83
2019-05-29T02:51:30.519Z,8.00
2019-05-29T02:54:02.460Z,8.57
2019-05-29T02:56:33.480Z,9.10
2019-05-29T02:59:04.430Z,9.10
2019-05-29T03:01:40.388Z,10.07
2019-05-29T03:04:14.816Z,8.97
2019-05-29T03:06:50.615Z,9.37
2019-05-29T03:09:26.659Z,8.97
2019-05-29T03:12:02.446Z,8.87
2019-05-29T03:14:35.346Z,9.00
2019-05-29T03:17:09.413Z,8.57
2019-05-29T03:19:45.697Z,8.50
2019-05-29T03:22:18.028Z,9.67
2019-05-29T03:24:50.535Z,9.23
2019-05-29T03:27:29.774Z,9.90
2019-05-29T03:30:18.997Z,10.23
2019-05-29T03:33:15.779Z,9.50
2019-05-29T03:36:06.601Z,9.57
2019-05-29T03:38:32.679Z,10.63
2019-05-29T03:41:18.700Z,11.80
2019-05-29T03:44:30.659Z,10.63
2019-05-29T03:47:01.705Z,10.20
2019-05-29T03:49:53.907Z,11.70
2019-05-29T03:52:34.713Z,10.87
2019-05-29T03:55:12.136Z,10.23
2019-05-29T03:57:49.237Z,10.73
2019-05-29T04:00:38.647Z,10.37
2019-05-29T04:03:16.462Z,11.43
2019-05-29T04:09:05.931Z,11.37
2019-05-29T04:12:01.689Z,11.60
2019-05-29T04:14:29.809Z,11.57
2019-05-29T04:17:31.977Z,12.40
2019-05-29T04:21:00.809Z,13.23
2019-05-29T04:23:41.512Z,13.63
2019-05-29T04:26:23.202Z,13.63
2019-05-29T04:28:57.660Z,12.93
2019-05-29T04:31:29.908Z,13.33
2019-05-29T04:34:07.810Z,12.87
2019-05-29T04:55:45.903Z,11.93
2019-05-29T04:58:37.403Z,12.00
2019-05-29T06:35:22.994Z,3.03
2019-05-29T06:38:26.172Z,2.83
2019-05-29T06:44:49.977Z,2.50
2019-05-29T06:51:55.382Z,2.53
2019-05-29T06:55:01.872Z,2.30
2019-05-29T07:13:03.200Z,1.90
2019-05-29T08:04:25.262Z,1.73
2019-05-29T08:39:41.111Z,1.50
2019-05-29T08:42:23.749Z,1.50
2019-05-29T08:45:27.917Z,1.40
2019-05-29T08:48:17.074Z,1.60
2019-05-29T08:50:59.517Z,1.97
2019-05-29T08:53:37.256Z,1.30
2019-05-29T08:56:09.284Z,1.20
2019-05-29T08:58:44.412Z,1.30
2019-05-29T09:01:17.109Z,1.30
2019-05-29T09:03:53.984Z,1.40
2019-05-29T09:06:35.164Z,1.37
2019-05-29T09:09:14.432Z,1.43
2019-05-29T09:11:52.002Z,1.60
2019-05-29T09:14:25.401Z,1.70
2019-05-29T09:17:01.298Z,1.30
2019-05-29T09:19:37.169Z,1.67
2019-05-29T09:22:14.925Z,1.60
2019-05-29T09:24:45.534Z,1.50
2019-05-29T09:27:48.016Z,1.50
2019-05-29T09:30:24.021Z,1.23
2019-05-29T09:32:53.035Z,1.57
2019-05-29T09:35:47.280Z,1.77
2019-05-29T09:38:28.254Z,1.90
2019-05-29T09:41:02.012Z,1.80
2019-05-29T09:43:37.408Z,1.33
2019-05-29T09:46:12.062Z,1.90
2019-05-29T09:48:49.723Z,1.70
2019-05-29T09:51:21.664Z,1.70
2019-05-29T09:53:50.568Z,1.60
2019-05-29T09:56:27.583Z,1.80
2019-05-29T09:59:00.497Z,1.60
2019-05-29T10:01:32.690Z,1.60
2019-05-29T10:04:06.437Z,1.30
2019-05-29T10:06:40.810Z,1.40
2019-05-29T10:10:27.376Z,1.47
2019-05-29T10:11:58.502Z,1.50
2019-05-29T10:14:28.108Z,1.70
2019-05-29T10:17:05.941Z,1.52
2019-05-29T10:19:33.200Z,1.60
2019-05-29T10:22:09.604Z,1.70
2019-05-29T10:24:43.665Z,1.32
2019-05-29T10:27:18.287Z,1.60
2019-05-29T10:29:51.703Z,1.52
2019-05-29T10:32:25.363Z,1.75
2019-05-29T10:34:57.709Z,1.70
2019-05-29T10:37:31.045Z,1.95
2019-05-29T10:40:06.717Z,1.80
2019-05-29T10:42:39.688Z,1.90
2019-05-29T10:45:11.229Z,1.70
2019-05-29T10:47:45.425Z,1.70
2019-05-29T10:50:18.833Z,1.67
2019-05-29T10:52:52.296Z,1.72
2019-05-29T10:55:34.955Z,1.60
2019-05-29T10:58:10.882Z,1.50
2019-05-29T11:00:53.180Z,1.72
2019-05-29T11:03:20.787Z,2.08
2019-05-29T11:05:51.934Z,1.85
2019-05-29T11:08:25.245Z,1.87
2019-05-29T11:11:15.071Z,1.60
2019-05-29T11:13:43.569Z,1.83
2019-05-29T11:16:19.757Z,1.60
2019-05-29T11:18:57.579Z,1.77
2019-05-29T11:21:29.680Z,1.70
2019-05-29T11:26:41.639Z,1.70
2019-05-29T11:29:17.803Z,1.60
2019-05-29T11:31:53.222Z,1.47
2019-05-29T11:34:26.598Z,2.17
2019-05-29T11:37:00.881Z,1.50
2019-05-29T11:39:34.123Z,1.75
2019-05-29T11:42:27.393Z,1.60
2019-05-29T11:45:03.807Z,1.55
2019-05-29T11:47:38.338Z,1.72
2019-05-29T11:50:20.694Z,1.70
2019-05-29T11:52:54.510Z,1.80
2019-05-29T11:55:28.033Z,1.40
2019-05-29T11:58:04.332Z,1.70
2019-05-29T12:23:11.347Z,1.70
2019-05-29T12:26:20.103Z,1.20
2019-05-29T12:28:50.459Z,1.60
2019-05-29T12:31:54.821Z,1.70
2019-05-29T12:34:52.829Z,1.20
2019-05-29T12:37:18.140Z,1.52
2019-05-29T12:39:55.435Z,1.55
2019-05-29T12:42:36.284Z,1.57
2019-05-29T12:45:24.691Z,1.60
2019-05-29T12:48:06.685Z,1.60
2019-05-29T12:50:49.842Z,1.52
2019-05-29T12:53:37.309Z,1.62
2019-05-29T12:56:50.475Z,1.50
2019-05-29T12:59:21.375Z,1.52
2019-05-29T13:05:58.228Z,1.40
2019-05-29T13:09:47.678Z,1.50
2019-05-29T13:12:19.954Z,1.65
2019-05-29T13:15:14.295Z,1.42
2019-05-29T13:18:11.225Z,1.50
2019-05-29T13:22:32.978Z,1.70
2019-05-29T13:24:34.382Z,1.40
2019-05-29T13:30:59.723Z,2.00
2019-05-29T13:33:34.158Z,1.90
2019-05-29T13:36:31.946Z,2.00
2019-05-29T13:41:11.181Z,1.82
2019-05-29T13:42:11.802Z,1.60
2019-05-29T13:44:51.538Z,1.70
2019-05-29T13:50:34.379Z,1.75
2019-05-29T13:53:09.358Z,1.50
2019-05-29T14:44:46.972Z,2.45
2019-05-29T14:47:24.044Z,2.55
2019-05-29T14:50:09.112Z,2.10
2019-05-29T14:52:50.993Z,2.37
2019-05-29T14:55:45.855Z,2.67
2019-05-29T15:21:57.041Z,2.58
2019-05-29T15:24:29.745Z,1.85
2019-05-29T15:27:14.102Z,1.75
2019-05-29T15:29:51.576Z,1.77
2019-05-29T15:32:42.791Z,1.57
2019-05-29T15:35:13.752Z,2.10
2019-05-29T15:37:44.220Z,1.50
2019-05-29T15:40:29.071Z,1.90
2019-05-29T15:43:06.527Z,1.75
2019-05-29T15:45:51.158Z,1.50
2019-05-29T15:48:38.263Z,1.95
2019-05-29T15:51:36.308Z,1.60
2019-05-29T15:54:09.138Z,2.08
2019-05-29T15:56:50.606Z,2.17
2019-05-29T15:59:38.988Z,1.42
2019-05-29T16:02:29.038Z,1.70
2019-05-29T16:36:38.493Z,1.00
2019-05-29T16:39:19.183Z,1.40
2019-05-29T16:42:11.883Z,1.55
2019-05-29T19:04:12.543Z,1.57
2019-05-29T19:06:44.889Z,1.97
2019-05-29T19:09:15.751Z,1.57
2019-05-29T19:11:47.811Z,1.50
2019-05-29T19:14:21.871Z,1.33
2019-05-29T19:16:55.979Z,1.07
2019-05-29T19:19:30.269Z,1.50
2019-05-29T19:22:02.442Z,1.63
2019-05-29T19:24:39.673Z,1.50
2019-05-29T19:27:30.231Z,1.63
2019-05-29T19:29:48.691Z,1.50
2019-05-29T19:32:20.832Z,1.30
2019-05-29T19:34:58.007Z,1.73
2019-05-29T19:37:34.131Z,1.43
2019-05-29T19:40:09.841Z,1.40
2019-05-29T19:42:44.096Z,1.80
2019-05-29T19:45:15.400Z,2.20
2019-05-29T20:10:35.471Z,1.70
2019-05-29T20:16:16.601Z,1.50
2019-05-29T20:23:24.104Z,1.57
2019-05-29T20:31:02.231Z,1.63
2019-05-29T20:34:46.106Z,1.70
2019-05-29T23:00:02.958Z,2.93
